Central, Indiana
Current Conditions -  °F | °C
As of 8:58 PM on Wednesday 26 Nov 2014 (Local Time) from KFTK Reporting Station
Scattered Clouds Scattered Clouds  
Wind Chill: 32°   Ceiling: Unl
Heat Index: 38°   Visibility: 10mi
Dew Point: 27°   Wind: 8mph
Humidity: 65%   Direction: 260°W
Pressure: 30.03"   Gusts: NA
Location:  38.1°N, 86.16°W
Report Text: KFTK 270158Z AUTO 26007KT 10SM SCT055 03/M03 A3003 RMK AO2 SLP179 T00331027
Loading
Personal Weather Stations






























Interactive Weather Map New forecast layout! Learn more

10-Day Weather Forecast

Advertisements
Track Severe Weather on mobile